Gulf Breeze, Florida
Current Conditions -  °F | °C
As of 4:53 AM on Wednesday 26 Nov 2014 (Local Time) from KPNS Reporting Station
Clear Clear  
Wind Chill: 35°   Ceiling: Unl
Heat Index: 41°   Visibility: 10mi
Dew Point: 30°   Wind: 10mph
Humidity: 65%   Direction: 330°NNW
Pressure: 30.15"   Gusts: NA
Location:  30.36°N, 87.17°W
Report Text: KPNS 261053Z 33009KT 10SM CLR 05/M01 A3015 RMK AO2 SLP213 T00501011
Loading
Personal Weather Stations






























Interactive Weather Map New forecast layout! Learn more

10-Day Weather Forecast

Advertisements
Track Severe Weather on mobile